Main page
METAR-TAF:

METAR-TAF

Airports :

Sharurah Domestic Airport

Sharurah, Saudi Arabia

latitude: 17-28N, longitude: 047-07E, elevation: 720 m

Current weather observation

The report was made 48 minutes ago, at 17:00 UTC
Calm wind
Temperature 28°C
Humidity 14%
Pressure 1016 hPa
Visibility 10 km or more
no clouds below 1500 m and no cumulonimbus

METAR: OESH 251700Z 00000KT CAVOK 28/M02 Q1016 NOSIG

Time: 20:48 (17:48 UTC)

Forecast

The report was made 6 hours and 48 minutes ago, at 11:00 UTC
Forecast valid from 25 at 12 UTC to 26 at 18 UTC
Wind 10 kt from the North/Northeast
Visibility 10 km or more
no clouds below 1500 m and no cumulonimbus
Becoming
from 25 at 18 UTC to 25 at 20 UTC
Wind 10 kt from the East/Southeast
Becoming
from 26 at 03 UTC to 26 at 05 UTC
Wind 3 kt from variable directions

TAF: OESH 251100Z 2512/2618 03010KT CAVOK BECMG 2518/2520 12010KT BECMG 2603/2605 VRB03KT

Weather observations and forecasts of more than 4000 airports (METAR and TAF reports).

The available stations are represented by yellow and red dots on the map.

Hover mouse over dot to see the name of the station.

Then click to see weather observations and forecasts.

To change the map : click on the green buttons with a black cross to zoom in, on the green button with a dash to zoom out, or on the green arrows for adjacent maps.


METAR-TAF: